« Back
NWS Peachtree City, Ga » Text Product » MCN Terminal Aerodrome Forecast


Printer-friendly Version
Current Version              Previous Versions:   1  2  3  4  5  6  7  8  9  

Terminal Aerodrome Forecast

545
FTUS42 KFFC 201700
TAFMCN
TAF
KMCN 201732Z 2018/2118 06011G16KT P6SM SCT040
     FM210000 06003KT P6SM SCT250
     FM211300 26006KT P6SM SKC=



USA.gov is the U.S. government's official web portal to all federal, state and local government web resources and services.